createdAt,value
2023-01-29T00:00:20.308Z,1999.90
2023-01-29T00:01:20.325Z,1999.90
2023-01-29T00:02:20.345Z,1999.90
2023-01-29T00:03:20.378Z,1999.90
2023-01-29T00:04:20.330Z,1999.90
2023-01-29T00:05:27.995Z,760.50
2023-01-29T00:06:21.252Z,918.60
2023-01-29T00:07:20.229Z,1037.00
2023-01-29T00:08:20.227Z,1999.90
2023-01-29T00:09:20.254Z,1999.90
2023-01-29T00:10:20.198Z,1999.90
2023-01-29T00:11:20.184Z,1999.90
2023-01-29T00:12:20.188Z,1999.90
2023-01-29T00:13:20.182Z,1999.90
2023-01-29T00:14:20.225Z,1999.90
2023-01-29T00:15:20.171Z,1999.90
2023-01-29T00:16:20.130Z,1999.90
2023-01-29T00:17:20.215Z,1999.90
2023-01-29T00:18:20.121Z,1940.60
2023-01-29T00:19:20.163Z,1999.90
2023-01-29T00:20:20.231Z,1999.90
2023-01-29T00:21:20.069Z,1999.90
2023-01-29T00:22:20.067Z,1999.90
2023-01-29T00:23:20.073Z,1999.90
2023-01-29T00:24:20.231Z,1999.90
2023-01-29T00:25:20.082Z,1999.90
2023-01-29T00:26:20.065Z,1999.90
2023-01-29T00:27:20.022Z,1999.90
2023-01-29T00:28:20.018Z,1999.90
2023-01-29T00:29:20.053Z,1999.90
2023-01-29T00:30:20.384Z,1999.90
2023-01-29T00:31:20.114Z,1999.90
2023-01-29T00:32:20.037Z,1999.90
2023-01-29T00:33:19.940Z,1999.90
2023-01-29T00:34:19.987Z,1999.90
2023-01-29T00:35:19.951Z,1999.90
2023-01-29T00:36:19.911Z,1999.90
2023-01-29T00:37:19.892Z,1999.90
2023-01-29T00:38:19.868Z,1999.90
2023-01-29T00:39:19.914Z,1999.90
2023-01-29T00:40:19.968Z,1999.90
2023-01-29T00:41:19.856Z,1999.90
2023-01-29T00:42:19.855Z,1999.90
2023-01-29T00:43:19.837Z,1999.90
2023-01-29T00:44:19.873Z,1999.90
2023-01-29T00:45:19.820Z,1999.90
2023-01-29T00:46:19.804Z,1999.90
2023-01-29T00:47:19.796Z,1999.90
2023-01-29T00:48:19.775Z,1999.90
2023-01-29T00:49:19.808Z,1999.90
2023-01-29T00:50:19.895Z,1425.90
2023-01-29T00:51:19.765Z,1999.90
2023-01-29T00:52:19.727Z,1999.90
2023-01-29T00:53:19.713Z,1999.90
2023-01-29T00:54:19.748Z,1999.90
2023-01-29T00:55:19.715Z,1999.90
2023-01-29T00:56:19.684Z,1999.90
2023-01-29T00:57:19.680Z,1999.90
2023-01-29T00:58:19.651Z,1999.90
2023-01-29T00:59:19.718Z,1005.30
2023-01-29T01:00:19.761Z,1597.10
2023-01-29T01:01:19.645Z,1011.90
2023-01-29T01:02:19.681Z,1999.90
2023-01-29T01:03:19.618Z,1999.90
2023-01-29T01:04:19.654Z,1999.90
2023-01-29T01:05:19.587Z,1999.90
2023-01-29T01:06:19.556Z,1999.90
2023-01-29T01:07:19.545Z,984.70
2023-01-29T01:08:19.553Z,1999.90
2023-01-29T01:09:19.592Z,1999.90
2023-01-29T01:10:19.531Z,1999.90
2023-01-29T01:11:19.555Z,1999.90
2023-01-29T01:12:19.512Z,383.80
2023-01-29T01:13:19.509Z,1999.90
2023-01-29T01:14:19.529Z,1999.90
2023-01-29T01:15:19.469Z,1999.90
2023-01-29T01:16:19.493Z,1999.90
2023-01-29T01:17:19.437Z,1383.10
2023-01-29T01:18:19.432Z,1999.90
2023-01-29T01:19:19.475Z,1999.90
2023-01-29T01:20:19.610Z,1999.90
2023-01-29T01:21:19.415Z,1999.90
2023-01-29T01:22:19.394Z,1999.90
2023-01-29T01:23:19.380Z,118.00
2023-01-29T01:24:19.404Z,1999.90
2023-01-29T01:25:19.362Z,1999.90
2023-01-29T01:26:19.352Z,1999.90
2023-01-29T01:27:19.339Z,1999.90
2023-01-29T01:28:19.318Z,1999.90
2023-01-29T01:29:19.371Z,1999.90
2023-01-29T01:30:19.421Z,814.90
2023-01-29T01:31:19.373Z,740.40
2023-01-29T01:32:19.272Z,650.10
2023-01-29T01:33:19.275Z,1999.90
2023-01-29T01:34:19.274Z,1999.90
2023-01-29T01:35:19.247Z,1999.90
2023-01-29T01:36:19.221Z,1999.90
2023-01-29T01:37:19.221Z,1999.90
2023-01-29T01:38:19.210Z,1999.90
2023-01-29T01:39:19.248Z,894.40
2023-01-29T01:40:19.530Z,985.20
2023-01-29T01:41:19.186Z,929.40
2023-01-29T01:42:19.148Z,750.70
2023-01-29T01:43:19.153Z,973.90
2023-01-29T01:44:19.181Z,1999.90
2023-01-29T01:45:19.138Z,1999.90
2023-01-29T01:46:19.108Z,1999.90
2023-01-29T01:47:19.112Z,1999.90
2023-01-29T01:48:19.096Z,1999.90
2023-01-29T01:49:19.116Z,1127.30
2023-01-29T01:50:19.136Z,1999.90
2023-01-29T01:51:19.070Z,1999.90
2023-01-29T01:52:19.061Z,1999.90
2023-01-29T01:53:19.029Z,1999.90
2023-01-29T01:54:19.047Z,1999.90
2023-01-29T01:55:19.008Z,1999.90
2023-01-29T01:56:18.986Z,1999.90
2023-01-29T01:57:19.017Z,1999.90
2023-01-29T01:58:18.970Z,1999.90
2023-01-29T01:59:18.997Z,1999.90
2023-01-29T02:00:18.946Z,1999.90
2023-01-29T02:01:19.039Z,1999.90
2023-01-29T02:02:18.990Z,1999.90
2023-01-29T02:03:18.904Z,1999.90
2023-01-29T02:04:18.931Z,892.50
2023-01-29T02:05:18.878Z,1999.90
2023-01-29T02:06:18.859Z,1999.90
2023-01-29T02:07:18.868Z,1999.90
2023-01-29T02:08:18.851Z,707.20
2023-01-29T02:09:18.886Z,875.90
2023-01-29T02:10:19.013Z,720.30
2023-01-29T02:11:18.823Z,1650.10
2023-01-29T02:12:18.807Z,637.70
2023-01-29T02:13:18.812Z,760.40
2023-01-29T02:14:18.823Z,1999.90
2023-01-29T02:15:18.785Z,1999.90
2023-01-29T02:16:18.751Z,1999.90
2023-01-29T02:17:18.780Z,1999.90
2023-01-29T02:18:18.724Z,1999.90
2023-01-29T02:19:19.143Z,1999.90
2023-01-29T02:20:18.883Z,903.70
2023-01-29T02:21:18.705Z,905.00
2023-01-29T02:22:18.683Z,932.20
2023-01-29T02:23:18.677Z,1999.90
2023-01-29T02:24:18.769Z,1999.90
2023-01-29T02:25:18.651Z,751.50
2023-01-29T02:26:18.662Z,765.40
2023-01-29T02:27:18.626Z,1999.90
2023-01-29T02:28:18.952Z,1999.90
2023-01-29T02:29:18.658Z,1999.90
2023-01-29T02:30:18.862Z,1999.90
2023-01-29T02:31:18.683Z,1999.90
2023-01-29T02:32:18.552Z,607.30
2023-01-29T02:33:18.557Z,515.40
2023-01-29T02:34:18.595Z,1999.90
2023-01-29T02:35:18.531Z,1999.90
2023-01-29T02:36:18.527Z,1999.90
2023-01-29T02:37:18.553Z,1999.90
2023-01-29T02:38:18.528Z,1240.90
2023-01-29T02:39:18.540Z,1999.90
2023-01-29T02:40:18.729Z,1999.90
2023-01-29T02:41:18.471Z,1999.90
2023-01-29T02:42:18.489Z,833.90
2023-01-29T02:43:18.458Z,167.70
2023-01-29T02:44:18.454Z,1079.50
2023-01-29T02:45:18.471Z,1002.90
2023-01-29T02:46:18.525Z,1027.20
2023-01-29T02:47:18.401Z,879.00
2023-01-29T02:48:18.403Z,635.80
2023-01-29T02:49:18.374Z,526.20
2023-01-29T02:50:18.801Z,459.70
2023-01-29T02:51:18.357Z,236.50
2023-01-29T02:52:18.365Z,426.10
2023-01-29T02:53:18.327Z,635.60
2023-01-29T02:54:18.323Z,704.00
2023-01-29T02:55:18.353Z,705.60
2023-01-29T02:56:18.291Z,443.20
2023-01-29T02:57:18.269Z,487.70
2023-01-29T02:58:18.283Z,493.60
2023-01-29T02:59:18.270Z,461.90
2023-01-29T03:00:18.574Z,463.00
2023-01-29T03:01:18.287Z,252.60
2023-01-29T03:02:18.365Z,707.70
2023-01-29T03:03:18.220Z,682.90
2023-01-29T03:04:18.228Z,660.50
2023-01-29T03:05:18.249Z,271.90
2023-01-29T03:06:18.196Z,110.30
2023-01-29T03:07:18.173Z,366.40
2023-01-29T03:08:18.180Z,355.60
2023-01-29T03:09:18.155Z,332.90
2023-01-29T03:10:18.478Z,326.00
2023-01-29T03:11:18.137Z,351.20
2023-01-29T03:12:19.707Z,369.50
2023-01-29T03:13:18.115Z,349.70
2023-01-29T03:14:18.103Z,356.50
2023-01-29T03:15:18.131Z,221.50
2023-01-29T03:16:18.113Z,84.60
2023-01-29T03:17:18.081Z,202.20
2023-01-29T03:18:18.062Z,211.10
2023-01-29T03:19:18.058Z,141.60
2023-01-29T03:20:18.477Z,124.20
2023-01-29T03:21:18.013Z,308.00
2023-01-29T03:22:18.016Z,437.50
2023-01-29T03:23:17.992Z,403.60
2023-01-29T03:24:18.042Z,174.40
2023-01-29T03:25:18.021Z,450.70
2023-01-29T03:26:17.986Z,411.90
2023-01-29T03:27:17.954Z,412.70
2023-01-29T03:28:17.993Z,470.00
2023-01-29T03:29:17.959Z,414.80
2023-01-29T03:30:18.232Z,122.10
2023-01-29T03:31:17.981Z,150.70
2023-01-29T03:32:17.893Z,419.10
2023-01-29T03:33:17.895Z,330.40
2023-01-29T03:34:17.882Z,197.10
2023-01-29T03:35:17.906Z,311.30
2023-01-29T03:36:17.855Z,285.20
2023-01-29T03:37:17.848Z,572.40
2023-01-29T03:38:17.841Z,738.80
2023-01-29T03:39:17.836Z,767.60
2023-01-29T03:40:18.349Z,1534.60
2023-01-29T03:41:17.790Z,1999.90
2023-01-29T03:42:17.806Z,1999.90
2023-01-29T03:43:17.784Z,1999.90
2023-01-29T03:44:17.797Z,1999.90
2023-01-29T03:45:17.812Z,1999.90
2023-01-29T03:46:17.756Z,1999.90
2023-01-29T03:47:17.715Z,1999.90
2023-01-29T03:48:17.768Z,1999.90
2023-01-29T03:49:17.717Z,1999.90
2023-01-29T03:50:18.089Z,1999.90
2023-01-29T03:51:17.701Z,1999.90
2023-01-29T03:52:17.675Z,1999.90
2023-01-29T03:53:17.675Z,1999.90
2023-01-29T03:54:17.653Z,1999.90
2023-01-29T03:55:17.692Z,1999.90
2023-01-29T03:56:17.633Z,1999.90
2023-01-29T03:57:17.612Z,1999.90
2023-01-29T03:58:17.604Z,1999.90
2023-01-29T03:59:17.587Z,1999.90
2023-01-29T04:00:17.916Z,1999.90
2023-01-29T04:01:17.983Z,1999.90
2023-01-29T04:02:17.572Z,1999.90
2023-01-29T04:03:17.548Z,1999.90
2023-01-29T04:04:17.604Z,1999.90
2023-01-29T04:05:17.601Z,1999.90
2023-01-29T04:06:17.543Z,1999.90
2023-01-29T04:07:17.516Z,1999.90
2023-01-29T04:08:17.501Z,1999.90
2023-01-29T04:09:17.493Z,1999.90
2023-01-29T04:10:17.775Z,1999.90
2023-01-29T04:11:17.499Z,1999.90
2023-01-29T04:12:17.457Z,1999.90
2023-01-29T04:13:17.450Z,1999.90
2023-01-29T04:14:17.441Z,1999.90
2023-01-29T04:15:17.498Z,1999.90
2023-01-29T04:16:17.506Z,1999.90
2023-01-29T04:17:17.442Z,1999.90
2023-01-29T04:18:17.456Z,1999.90
2023-01-29T04:19:17.395Z,1999.90
2023-01-29T04:20:17.724Z,1999.90
2023-01-29T04:21:17.347Z,1999.90
2023-01-29T04:22:17.382Z,1999.90
2023-01-29T04:23:17.647Z,1999.90
2023-01-29T04:24:17.385Z,1999.90
2023-01-29T04:25:17.373Z,1999.90
2023-01-29T04:26:17.288Z,1999.90
2023-01-29T04:27:17.289Z,1999.90
2023-01-29T04:28:17.276Z,1999.90
2023-01-29T04:29:17.266Z,1999.90
2023-01-29T04:30:17.580Z,1999.90
2023-01-29T04:31:17.328Z,1999.90
2023-01-29T04:32:17.230Z,1999.90
2023-01-29T04:33:17.236Z,1999.90
2023-01-29T04:34:17.206Z,1999.90
2023-01-29T04:35:17.549Z,1999.90
2023-01-29T04:36:17.188Z,1999.90
2023-01-29T04:37:17.190Z,1999.90
2023-01-29T04:38:17.177Z,1999.90
2023-01-29T04:39:17.142Z,1999.90
2023-01-29T04:40:17.517Z,1999.90
2023-01-29T04:41:17.144Z,1999.90
2023-01-29T04:42:17.141Z,1999.90
2023-01-29T04:43:17.111Z,1999.90
2023-01-29T04:44:17.133Z,1999.90
2023-01-29T04:45:17.141Z,1999.90
2023-01-29T04:46:17.069Z,1999.90
2023-01-29T04:47:17.139Z,1999.90
2023-01-29T04:48:17.064Z,1999.90
2023-01-29T04:49:17.056Z,1999.90
2023-01-29T04:50:17.491Z,1999.90
2023-01-29T04:51:17.026Z,489.60
2023-01-29T04:52:17.021Z,1999.90
2023-01-29T04:53:16.996Z,1999.90
2023-01-29T04:54:16.982Z,1999.90
2023-01-29T04:55:17.002Z,430.40
2023-01-29T04:56:16.951Z,1999.90
2023-01-29T04:57:16.955Z,484.10
2023-01-29T04:58:16.951Z,408.70
2023-01-29T04:59:16.936Z,1999.90
2023-01-29T05:00:17.356Z,591.10
2023-01-29T05:01:16.929Z,1999.90
2023-01-29T05:02:17.001Z,1999.90
2023-01-29T05:03:16.884Z,1999.90
2023-01-29T05:04:16.874Z,1999.90
2023-01-29T05:05:16.905Z,1999.90
2023-01-29T05:06:16.855Z,1999.90
2023-01-29T05:07:16.834Z,1999.90
2023-01-29T05:08:16.819Z,439.00
2023-01-29T05:09:16.813Z,1999.90
2023-01-29T05:10:17.027Z,1999.90
2023-01-29T05:11:16.786Z,1999.90
2023-01-29T05:12:16.789Z,1999.90
2023-01-29T05:13:16.777Z,1999.90
2023-01-29T05:14:16.769Z,1999.90
2023-01-29T05:15:16.797Z,1999.90
2023-01-29T05:16:16.786Z,644.60
2023-01-29T05:17:16.729Z,1999.90
2023-01-29T05:18:16.714Z,1999.90
2023-01-29T05:19:16.699Z,1999.90
2023-01-29T05:20:17.092Z,1999.90
2023-01-29T05:21:16.669Z,1999.90
2023-01-29T05:22:16.685Z,1999.90
2023-01-29T05:23:16.646Z,1999.90
2023-01-29T05:24:16.693Z,1999.90
2023-01-29T05:25:16.666Z,452.10
2023-01-29T05:26:16.622Z,1999.90
2023-01-29T05:27:16.613Z,1999.90
2023-01-29T05:28:16.692Z,448.00
2023-01-29T05:29:16.585Z,1999.90
2023-01-29T05:30:17.023Z,1999.90
2023-01-29T05:31:16.632Z,1999.90
2023-01-29T05:32:16.556Z,1999.90
2023-01-29T05:33:16.551Z,1999.90
2023-01-29T05:34:16.548Z,138.00
2023-01-29T05:35:16.567Z,1999.90
2023-01-29T05:36:16.518Z,484.80
2023-01-29T05:37:16.495Z,388.30
2023-01-29T05:38:16.498Z,440.80
2023-01-29T05:39:16.477Z,1999.90
2023-01-29T05:40:16.871Z,1999.90
2023-01-29T05:41:16.462Z,1999.90
2023-01-29T05:42:16.450Z,1999.90
2023-01-29T05:43:16.464Z,537.70
2023-01-29T05:44:16.446Z,1999.90
2023-01-29T05:45:16.427Z,1999.90
2023-01-29T05:46:16.455Z,346.10
2023-01-29T05:47:16.412Z,1999.90
2023-01-29T05:48:16.380Z,1999.90
2023-01-29T05:49:16.373Z,1999.90
2023-01-29T05:50:16.657Z,607.40
2023-01-29T05:51:16.388Z,1999.90
2023-01-29T05:52:16.330Z,1999.90
2023-01-29T05:53:16.301Z,1999.90
2023-01-29T05:54:16.308Z,1999.90
2023-01-29T05:55:16.286Z,1999.90
2023-01-29T05:56:16.335Z,443.10
2023-01-29T05:57:16.284Z,1999.90
2023-01-29T05:58:16.266Z,1999.90
2023-01-29T05:59:16.252Z,1999.90
2023-01-29T06:00:16.564Z,1999.90
2023-01-29T06:01:16.279Z,1999.90
2023-01-29T06:02:16.220Z,1999.90
2023-01-29T06:03:16.297Z,1999.90
2023-01-29T06:04:16.202Z,1999.90
2023-01-29T06:05:16.185Z,1999.90
2023-01-29T06:06:16.216Z,1999.90
2023-01-29T06:07:16.175Z,1999.90
2023-01-29T06:08:16.147Z,1999.90
2023-01-29T06:09:16.135Z,1999.90
2023-01-29T06:10:16.462Z,1999.90
2023-01-29T06:11:16.177Z,1999.90
2023-01-29T06:12:16.117Z,1999.90
2023-01-29T06:13:16.093Z,1999.90
2023-01-29T06:14:16.089Z,1999.90
2023-01-29T06:15:16.063Z,1999.90
2023-01-29T06:16:16.217Z,1999.90
2023-01-29T06:17:16.057Z,1999.90
2023-01-29T06:18:16.032Z,1999.90
2023-01-29T06:19:16.024Z,1999.90
2023-01-29T06:20:16.297Z,1999.90
2023-01-29T06:21:16.549Z,1999.90
2023-01-29T06:22:15.993Z,1999.90
2023-01-29T06:23:15.970Z,1999.90
2023-01-29T06:24:15.997Z,1999.90
2023-01-29T06:25:15.947Z,1999.90
2023-01-29T06:26:16.038Z,1999.90
2023-01-29T06:27:15.937Z,1999.90
2023-01-29T06:28:15.923Z,1999.90
2023-01-29T06:29:15.914Z,1999.90
2023-01-29T06:30:16.219Z,1999.90
2023-01-29T06:31:35.297Z,1999.90
2023-01-29T06:32:16.892Z,1999.90
2023-01-29T06:33:15.893Z,1999.90
2023-01-29T06:34:15.867Z,1999.90
2023-01-29T06:35:15.838Z,1999.90
2023-01-29T06:36:15.877Z,1999.90
2023-01-29T06:37:15.806Z,1999.90
2023-01-29T06:38:15.822Z,1941.20
2023-01-29T06:39:15.802Z,1999.90
2023-01-29T06:40:16.203Z,1999.90
2023-01-29T06:41:15.823Z,1999.90
2023-01-29T06:42:15.775Z,1999.90
2023-01-29T06:43:15.775Z,1999.90
2023-01-29T06:44:15.745Z,1999.90
2023-01-29T06:45:15.725Z,1999.90
2023-01-29T06:46:15.775Z,1999.90
2023-01-29T06:47:15.715Z,1999.90
2023-01-29T06:48:15.705Z,1999.90
2023-01-29T06:49:15.680Z,1999.90
2023-01-29T06:50:15.975Z,1999.90
2023-01-29T06:51:15.699Z,1999.90
2023-01-29T06:52:15.640Z,602.40
2023-01-29T06:53:15.642Z,1999.90
2023-01-29T06:54:15.633Z,1999.90
2023-01-29T06:55:15.620Z,1999.90
2023-01-29T06:56:15.644Z,1999.90
2023-01-29T06:57:15.597Z,1999.90
2023-01-29T06:58:15.583Z,1999.90
2023-01-29T06:59:15.578Z,1999.90
2023-01-29T07:00:15.926Z,1999.90
2023-01-29T07:01:33.429Z,1999.90
2023-01-29T07:02:16.609Z,1999.90
2023-01-29T07:03:15.521Z,1999.90
2023-01-29T07:04:15.516Z,1999.90
2023-01-29T07:05:15.497Z,1999.90
2023-01-29T07:06:15.531Z,1999.90
2023-01-29T07:07:15.495Z,1999.90
2023-01-29T07:08:15.469Z,1999.90
2023-01-29T07:09:15.478Z,1999.90
2023-01-29T07:10:15.709Z,1999.90
2023-01-29T07:11:15.483Z,1999.90
2023-01-29T07:12:15.425Z,1999.90
2023-01-29T07:13:15.426Z,1999.90
2023-01-29T07:14:15.416Z,1999.90
2023-01-29T07:15:15.379Z,1999.90
2023-01-29T07:16:15.427Z,1999.90
2023-01-29T07:17:15.381Z,1999.90
2023-01-29T07:18:15.362Z,1999.90
2023-01-29T07:19:15.375Z,1999.90
2023-01-29T07:20:15.693Z,1999.90
2023-01-29T07:21:15.387Z,1999.90
2023-01-29T07:22:15.297Z,1999.90
2023-01-29T07:23:15.307Z,1999.90
2023-01-29T07:24:15.309Z,1999.90
2023-01-29T07:25:15.280Z,1999.90
2023-01-29T07:26:15.337Z,1999.90
2023-01-29T07:27:15.272Z,1999.90
2023-01-29T07:28:15.252Z,1999.90
2023-01-29T07:29:15.240Z,1999.90
2023-01-29T07:30:15.664Z,1999.90
2023-01-29T07:31:15.451Z,1999.90
2023-01-29T07:32:15.273Z,1999.90
2023-01-29T07:33:15.189Z,1999.90
2023-01-29T07:34:15.199Z,1999.90
2023-01-29T07:35:15.173Z,1999.90
2023-01-29T07:36:15.219Z,1999.90
2023-01-29T07:37:15.139Z,1999.90
2023-01-29T07:38:15.125Z,1999.90
2023-01-29T07:39:15.155Z,1999.90
2023-01-29T07:40:15.407Z,1999.90
2023-01-29T07:41:15.139Z,1999.90
2023-01-29T07:42:15.088Z,1999.90
2023-01-29T07:43:15.078Z,1999.90
2023-01-29T07:44:15.053Z,1999.90
2023-01-29T07:45:15.056Z,1999.90
2023-01-29T07:46:15.266Z,1999.90
2023-01-29T07:47:17.034Z,1999.90
2023-01-29T07:48:15.017Z,1999.90
2023-01-29T07:49:15.006Z,1999.90
2023-01-29T07:50:15.555Z,1999.90
2023-01-29T07:51:15.029Z,1999.90
2023-01-29T07:52:14.958Z,1999.90
2023-01-29T07:53:14.955Z,1999.90
2023-01-29T07:54:14.961Z,1999.90
2023-01-29T07:55:14.956Z,1999.90
2023-01-29T07:56:14.975Z,1999.90
2023-01-29T07:57:14.915Z,1999.90
2023-01-29T07:58:14.905Z,1999.90
2023-01-29T07:59:14.896Z,1999.90
2023-01-29T08:00:15.173Z,1999.90
2023-01-29T08:01:15.013Z,1999.90
2023-01-29T08:02:15.032Z,1999.90
2023-01-29T08:03:14.853Z,1999.90
2023-01-29T08:04:14.832Z,1999.90
2023-01-29T08:05:14.856Z,1999.90
2023-01-29T08:06:14.861Z,1999.90
2023-01-29T08:07:14.811Z,1999.90
2023-01-29T08:08:14.787Z,1999.90
2023-01-29T08:09:14.797Z,1999.90
2023-01-29T08:10:14.944Z,1999.90
2023-01-29T08:11:14.809Z,1999.90
2023-01-29T08:12:14.763Z,1999.90
2023-01-29T08:13:14.745Z,1999.90
2023-01-29T08:14:14.726Z,1999.90
2023-01-29T08:15:14.710Z,1999.90
2023-01-29T08:16:14.777Z,1999.90
2023-01-29T08:17:14.703Z,1999.90
2023-01-29T08:18:14.769Z,1999.90
2023-01-29T08:19:14.673Z,1999.90
2023-01-29T08:20:14.710Z,1999.90
2023-01-29T08:21:14.676Z,1999.90
2023-01-29T08:22:14.634Z,1999.90
2023-01-29T08:23:14.656Z,1999.90
2023-01-29T08:24:14.624Z,1999.90
2023-01-29T08:25:14.611Z,1999.90
2023-01-29T08:26:14.626Z,1999.90
2023-01-29T08:27:14.601Z,1999.90
2023-01-29T08:28:14.569Z,1999.90
2023-01-29T08:29:14.554Z,1999.90
2023-01-29T08:30:14.543Z,1999.90
2023-01-29T08:31:14.628Z,1999.90
2023-01-29T08:32:14.516Z,1999.90
2023-01-29T08:33:14.644Z,1999.90
2023-01-29T08:34:14.503Z,1999.90
2023-01-29T08:35:14.501Z,1999.90
2023-01-29T08:36:14.511Z,1999.90
2023-01-29T08:37:14.458Z,1999.90
2023-01-29T08:38:14.437Z,1999.90
2023-01-29T08:39:14.439Z,1999.90
2023-01-29T08:40:14.424Z,1999.90
2023-01-29T08:41:14.425Z,1999.90
2023-01-29T08:42:14.450Z,1999.90
2023-01-29T08:43:14.404Z,1999.90
2023-01-29T08:44:14.370Z,1999.90
2023-01-29T08:45:14.373Z,1999.90
2023-01-29T08:46:14.413Z,1999.90
2023-01-29T08:47:14.407Z,1999.90
2023-01-29T08:48:14.330Z,1999.90
2023-01-29T08:49:14.323Z,1999.90
2023-01-29T08:50:14.311Z,1999.90
2023-01-29T08:51:14.322Z,1999.90
2023-01-29T08:52:14.325Z,1999.90
2023-01-29T08:53:14.281Z,1999.90
2023-01-29T08:54:14.271Z,1999.90
2023-01-29T08:55:14.579Z,1999.90
2023-01-29T08:56:14.251Z,1999.90
2023-01-29T08:57:14.276Z,1999.90
2023-01-29T08:58:14.218Z,1999.90
2023-01-29T08:59:14.250Z,1999.90
2023-01-29T09:00:14.666Z,1999.90
2023-01-29T09:01:14.219Z,1999.90
2023-01-29T09:02:14.216Z,1999.90
2023-01-29T09:03:14.172Z,1999.90
2023-01-29T09:04:14.154Z,1999.90
2023-01-29T09:05:14.379Z,1999.90
2023-01-29T09:06:14.120Z,1999.90
2023-01-29T09:07:14.158Z,1999.90
2023-01-29T09:08:14.102Z,1999.90
2023-01-29T09:09:14.095Z,1999.90
2023-01-29T09:10:14.076Z,1999.90
2023-01-29T09:11:14.062Z,1999.90
2023-01-29T09:12:14.089Z,1999.90
2023-01-29T09:13:14.040Z,1999.90
2023-01-29T09:14:14.021Z,1999.90
2023-01-29T09:15:14.049Z,1999.90
2023-01-29T09:16:14.038Z,1999.90
2023-01-29T09:17:14.047Z,1999.90
2023-01-29T09:18:13.981Z,1999.90
2023-01-29T09:19:13.967Z,1999.90
2023-01-29T09:20:13.976Z,441.10
2023-01-29T09:21:13.947Z,1999.90
2023-01-29T09:22:13.964Z,244.20
2023-01-29T09:23:13.936Z,1999.90
2023-01-29T09:24:13.927Z,434.60
2023-01-29T09:25:14.266Z,1999.90
2023-01-29T09:26:13.960Z,261.40
2023-01-29T09:27:13.927Z,1999.90
2023-01-29T09:28:13.883Z,382.30
2023-01-29T09:29:13.854Z,1999.90
2023-01-29T09:30:13.852Z,1999.90
2023-01-29T09:31:13.955Z,177.60
2023-01-29T09:32:14.615Z,1999.90
2023-01-29T09:33:13.816Z,1999.90
2023-01-29T09:34:13.799Z,293.80
2023-01-29T09:35:13.949Z,1999.90
2023-01-29T09:36:13.787Z,1999.90
2023-01-29T09:37:13.847Z,1999.90
2023-01-29T09:38:13.769Z,1999.90
2023-01-29T09:39:13.755Z,1999.90
2023-01-29T09:40:13.720Z,1999.90
2023-01-29T09:41:13.719Z,1999.90
2023-01-29T09:42:13.770Z,1999.90
2023-01-29T09:43:13.703Z,1999.90
2023-01-29T09:44:13.684Z,1999.90
2023-01-29T09:45:13.825Z,1999.90
2023-01-29T09:46:13.727Z,1999.90
2023-01-29T09:47:13.692Z,374.90
2023-01-29T09:48:13.651Z,1999.90
2023-01-29T09:49:13.614Z,1999.90
2023-01-29T09:50:13.604Z,474.50
2023-01-29T09:51:13.601Z,313.60
2023-01-29T09:52:13.658Z,1999.90
2023-01-29T09:53:13.573Z,242.30
2023-01-29T09:54:13.594Z,1999.90
2023-01-29T09:55:13.664Z,1999.90
2023-01-29T09:56:13.546Z,407.90
2023-01-29T09:57:13.586Z,1999.90
2023-01-29T09:58:13.523Z,310.70
2023-01-29T09:59:13.523Z,1999.90
2023-01-29T10:00:13.505Z,1999.90
2023-01-29T10:01:13.585Z,554.60
2023-01-29T10:02:13.623Z,1999.90
2023-01-29T10:03:13.474Z,1999.90
2023-01-29T10:04:13.493Z,1999.90
2023-01-29T10:05:13.473Z,1999.90
2023-01-29T10:06:13.435Z,1999.90
2023-01-29T10:07:13.470Z,1999.90
2023-01-29T10:08:13.416Z,1999.90
2023-01-29T10:09:13.401Z,1999.90
2023-01-29T10:10:13.411Z,1999.90
2023-01-29T10:11:13.427Z,1999.90
2023-01-29T10:12:13.430Z,1999.90
2023-01-29T10:13:13.358Z,1999.90
2023-01-29T10:14:13.359Z,1999.90
2023-01-29T10:15:13.341Z,1999.90
2023-01-29T10:16:13.348Z,202.10
2023-01-29T10:17:13.368Z,1999.90
2023-01-29T10:18:13.279Z,1999.90
2023-01-29T10:19:13.279Z,1999.90
2023-01-29T10:20:13.275Z,1999.90
2023-01-29T10:21:13.302Z,1999.90
2023-01-29T10:22:13.308Z,1999.90
2023-01-29T10:23:13.279Z,1999.90
2023-01-29T10:24:13.241Z,1999.90
2023-01-29T10:25:13.268Z,1999.90
2023-01-29T10:26:13.243Z,1999.90
2023-01-29T10:27:13.277Z,1999.90
2023-01-29T10:28:13.197Z,1999.90
2023-01-29T10:29:13.696Z,1999.90
2023-01-29T10:30:13.171Z,1999.90
2023-01-29T10:31:13.238Z,1999.90
2023-01-29T10:32:13.265Z,1999.90
2023-01-29T10:33:13.129Z,1999.90
2023-01-29T10:34:13.102Z,1999.90
2023-01-29T10:35:13.194Z,1999.90
2023-01-29T10:36:13.093Z,1999.90
2023-01-29T10:37:13.132Z,1999.90
2023-01-29T10:38:13.069Z,1999.90
2023-01-29T10:39:13.056Z,1999.90
2023-01-29T10:40:13.047Z,1999.90
2023-01-29T10:41:13.031Z,121.30
2023-01-29T10:42:13.085Z,1999.90
2023-01-29T10:43:13.013Z,830.70
2023-01-29T10:44:13.028Z,1999.90
2023-01-29T10:45:12.991Z,1999.90
2023-01-29T10:46:12.966Z,598.10
2023-01-29T10:47:13.033Z,1999.90
2023-01-29T10:48:12.934Z,341.20
2023-01-29T10:49:12.959Z,419.60
2023-01-29T10:50:12.934Z,233.90
2023-01-29T10:51:12.932Z,488.20
2023-01-29T10:52:12.992Z,975.10
2023-01-29T10:53:12.896Z,1999.90
2023-01-29T10:54:12.885Z,301.20
2023-01-29T10:55:12.879Z,1999.90
2023-01-29T10:56:22.384Z,278.20
2023-01-29T10:57:13.923Z,1999.90
2023-01-29T10:58:12.822Z,156.80
2023-01-29T10:59:12.836Z,497.50
2023-01-29T11:00:12.816Z,1999.90
2023-01-29T11:01:12.823Z,1999.90
2023-01-29T11:02:12.840Z,1999.90
2023-01-29T11:03:26.372Z,1999.90
2023-01-29T11:04:13.767Z,1999.90
2023-01-29T11:05:12.783Z,184.50
2023-01-29T11:06:12.763Z,1999.90
2023-01-29T11:07:12.806Z,1999.90
2023-01-29T11:08:12.729Z,1999.90
2023-01-29T11:09:12.740Z,1999.90
2023-01-29T11:10:12.729Z,1999.90
2023-01-29T11:11:12.702Z,1999.90
2023-01-29T11:12:12.721Z,1999.90
2023-01-29T11:13:12.689Z,1999.90
2023-01-29T11:14:12.640Z,1999.90
2023-01-29T11:15:12.627Z,1999.90
2023-01-29T11:16:12.621Z,1999.90
2023-01-29T11:17:12.699Z,1999.90
2023-01-29T11:18:12.624Z,1999.90
2023-01-29T11:19:12.616Z,1999.90
2023-01-29T11:20:12.591Z,594.40
2023-01-29T11:21:12.567Z,480.90
2023-01-29T11:22:12.600Z,334.50
2023-01-29T11:23:12.543Z,256.50
2023-01-29T11:24:12.576Z,286.80
2023-01-29T11:25:12.527Z,133.60
2023-01-29T11:26:12.583Z,114.10
2023-01-29T11:27:12.550Z,40.50
2023-01-29T11:28:12.493Z,39.40
2023-01-29T11:29:12.492Z,46.10
2023-01-29T11:30:12.484Z,42.80
2023-01-29T11:31:12.587Z,35.30
2023-01-29T11:32:12.507Z,1999.90
2023-01-29T11:33:12.469Z,1999.90
2023-01-29T11:34:12.444Z,33.50
2023-01-29T11:35:12.414Z,34.60
2023-01-29T11:36:12.425Z,159.40
2023-01-29T11:37:12.390Z,120.00
2023-01-29T11:38:12.432Z,434.60
2023-01-29T11:39:12.381Z,190.20
2023-01-29T11:40:12.376Z,263.20
2023-01-29T11:41:12.352Z,255.00
2023-01-29T11:42:14.119Z,152.40
2023-01-29T11:43:12.355Z,80.20
2023-01-29T11:44:12.309Z,56.70
2023-01-29T11:45:12.284Z,86.10
2023-01-29T11:46:12.339Z,72.60
2023-01-29T11:47:12.304Z,58.20
2023-01-29T11:48:12.327Z,41.40
2023-01-29T11:49:20.534Z,26.80
2023-01-29T11:50:13.249Z,46.20
2023-01-29T11:51:12.219Z,82.20
2023-01-29T11:52:12.233Z,39.80
2023-01-29T11:53:12.261Z,52.30
2023-01-29T11:54:12.209Z,46.80
2023-01-29T11:55:12.228Z,40.80
2023-01-29T11:56:12.179Z,47.90
2023-01-29T11:57:12.172Z,30.00
2023-01-29T11:58:12.224Z,48.10
2023-01-29T11:59:12.145Z,54.40
2023-01-29T12:00:12.137Z,48.70
2023-01-29T12:01:12.140Z,42.80
2023-01-29T12:02:12.111Z,48.00
2023-01-29T12:03:12.146Z,49.40
2023-01-29T12:04:12.191Z,28.80
2023-01-29T12:05:12.078Z,43.20
2023-01-29T12:06:12.102Z,44.10
2023-01-29T12:07:12.062Z,45.80
2023-01-29T12:08:12.108Z,43.00
2023-01-29T12:09:12.040Z,44.70
2023-01-29T12:10:12.013Z,42.00
2023-01-29T12:11:12.006Z,44.90
2023-01-29T12:12:11.990Z,39.10